Airfield :
LOGIN :

Register | Disclaimer

   EN    FR    IT 

 










Legend :    VFR   Marginal VFR   IFR   Intensive IFR   Very Intensive IFR
Visi :
Ceiling :
>= 8 km
>= 3000ft
5 to 8 km
1000 to 3000 ft
1500m to 5 km
500 to 1000 ft
800 to 1500m
200 to 500 ft
< 800m
< 200 ft
Symbols :   Thunderstorms  Fog  Heavy snow  Heavy precipitations  Wind > 20 kt
SIGMETs :     Misc.  Thunderstorms  Icing  Turbulence  Mountain Waves  Volcanic Ashes






- Airport Elevation : 274 ft
- IATA code : PUY


LDPL - Pula

CURRENT METAR :
  • 230230Z AUTO 07007KT CAVOK 21/16 Q1013 BECMG 08009KT

EXPIRED METARs :
  • 230200Z AUTO 06005KT CAVOK 20/17 Q1014 BECMG 08009KT
  • 230130Z AUTO 05006KT CAVOK 22/17 Q1013
  • 230100Z AUTO 08003KT CAVOK 20/17 Q1014
  • 230030Z AUTO VRB02KT CAVOK 19/17 Q1014
  • 230000Z AUTO 24003KT 200V260 CAVOK 20/18 Q1014
  • 222330Z AUTO 08004KT CAVOK 21/18 Q1014
  • 222300Z AUTO 07006KT CAVOK 20/18 Q1014
  • 222230Z 07004KT CAVOK 20/18 Q1014 NOSIG
  • 222200Z 07003KT CAVOK 20/19 Q1014 NOSIG

TAF TAF LDPL
Valid from the 23 at 00:00 until the 24 at 00:00 UTC


222325Z 2300/2400 05006KT CAVOK TX33/2313Z TN19/2301Z
BECMG 2301/2303 08009KT
PROB30
TEMPO 2303/2310 08015G25KT
BECMG 2313/2315 28010KT
BECMG 2317/2319 04006KT
PROB30
TEMPO 2321/2400 06015KT -TSRA FEW050CB



MET'MAP, your aeronautical weather chart ! - Copyright ORBIFLY December 2007 - Disclaimer

ORBIFLY MET'MAP TEAM :

Programming & Development : Alexandra Zaïnal
Original concept : Baudouin d'Aumeries
Technical & hardware support : Manuel Goepfert
Assistance : Marc-Olivier Méhu




SOURCES & CREDITS :

   NOAA